createdAt,value
2018-09-25T00:00:35.980Z,98019.33
2018-09-25T00:03:09.606Z,98022.23
2018-09-25T00:05:44.070Z,98025.11
2018-09-25T00:08:17.621Z,98024.99
2018-09-25T00:10:51.200Z,98024.62
2018-09-25T00:13:24.858Z,98028.35
2018-09-25T00:16:04.519Z,98030.99
2018-09-25T00:18:38.200Z,98023.90
2018-09-25T00:21:12.735Z,98029.19
2018-09-25T00:23:46.438Z,98028.73
2018-09-25T00:26:20.746Z,98032.20
2018-09-25T00:28:54.318Z,98032.33
2018-09-25T00:31:28.798Z,98025.94
2018-09-25T00:34:02.460Z,98025.81
2018-09-25T00:36:36.388Z,98026.53
2018-09-25T00:39:12.218Z,98026.05
2018-09-25T00:41:45.898Z,98024.02
2018-09-25T00:44:19.594Z,98034.84
2018-09-25T00:46:53.360Z,98031.93
2018-09-25T00:49:26.818Z,98034.70
2018-09-25T00:52:00.542Z,98038.28
2018-09-25T00:54:34.202Z,98040.81
2018-09-25T00:57:09.418Z,98039.39
2018-09-25T00:59:43.094Z,98037.21
2018-09-25T01:02:21.273Z,98040.72
2018-09-25T01:04:54.901Z,98050.67
2018-09-25T01:07:29.379Z,98046.93
2018-09-25T01:10:03.160Z,98050.67
2018-09-25T01:12:37.653Z,98045.28
2018-09-25T01:15:11.436Z,98047.55
2018-09-25T01:17:45.185Z,98050.42
2018-09-25T01:20:18.742Z,98043.00
2018-09-25T01:22:53.799Z,98049.72
2018-09-25T01:25:27.597Z,98051.27
2018-09-25T01:28:01.292Z,98050.09
2018-09-25T01:30:34.819Z,98058.14
2018-09-25T01:33:08.577Z,98057.28
2018-09-25T01:35:42.225Z,98055.36
2018-09-25T01:38:19.801Z,98056.34
2018-09-25T01:40:53.463Z,98046.00
2018-09-25T01:43:28.937Z,98049.02
2018-09-25T01:46:02.404Z,98061.13
2018-09-25T01:48:36.099Z,98055.83
2018-09-25T01:51:09.595Z,98060.75
2018-09-25T01:53:44.077Z,98063.28
2018-09-25T01:56:17.757Z,98061.48
2018-09-25T01:58:51.473Z,98062.08
2018-09-25T02:01:25.166Z,98059.05
2018-09-25T02:04:00.279Z,98060.97
2018-09-25T02:06:33.882Z,98059.77
2018-09-25T02:09:08.337Z,98056.50
2018-09-25T02:11:42.001Z,98059.95
2018-09-25T02:14:16.518Z,98058.88
2018-09-25T02:16:50.977Z,98052.57
2018-09-25T02:19:24.794Z,98049.78
2018-09-25T02:21:58.261Z,98051.67
2018-09-25T02:24:32.099Z,98061.03
2018-09-25T02:27:05.678Z,98060.06
2018-09-25T02:29:41.663Z,98063.42
2018-09-25T02:32:15.314Z,98070.64
2018-09-25T02:34:48.995Z,98072.66
2018-09-25T02:37:22.651Z,98073.17
2018-09-25T02:39:56.384Z,98073.57
2018-09-25T02:42:29.998Z,98069.77
2018-09-25T02:45:04.490Z,98063.91
2018-09-25T02:47:38.022Z,98068.87
2018-09-25T02:50:12.874Z,98071.75
2018-09-25T02:52:46.520Z,98075.11
2018-09-25T02:55:21.662Z,98077.53
2018-09-25T02:57:55.307Z,98077.05
2018-09-25T03:00:29.779Z,98074.75
2018-09-25T03:03:03.458Z,98076.06
2018-09-25T03:05:37.207Z,98073.08
2018-09-25T03:08:11.119Z,98079.09
2018-09-25T03:10:46.333Z,98080.53
2018-09-25T03:13:19.929Z,98075.76
2018-09-25T03:15:54.359Z,98078.63
2018-09-25T03:18:27.803Z,98071.55
2018-09-25T03:21:01.323Z,98072.28
2018-09-25T03:23:35.037Z,98074.70
2018-09-25T03:26:11.006Z,98072.05
2018-09-25T03:28:44.714Z,98073.00
2018-09-25T03:31:19.358Z,98085.01
2018-09-25T03:33:53.004Z,98079.72
2018-09-25T03:36:26.574Z,98079.98
2018-09-25T03:39:00.227Z,98085.84
2018-09-25T03:41:33.923Z,98083.09
2018-09-25T03:44:07.494Z,98080.58
2018-09-25T03:46:42.679Z,98089.44
2018-09-25T03:49:16.324Z,98088.72
2018-09-25T03:51:49.906Z,98090.89
2018-09-25T03:54:23.572Z,98087.86
2018-09-25T03:57:01.984Z,98094.70
2018-09-25T03:59:35.633Z,98097.34
2018-09-25T04:02:09.516Z,98097.56
2018-09-25T04:04:43.104Z,98101.16
2018-09-25T04:07:18.479Z,98098.62
2018-09-25T04:09:52.027Z,98102.32
2018-09-25T04:12:25.577Z,98100.17
2018-09-25T04:14:59.283Z,98106.89
2018-09-25T04:17:32.987Z,98104.28
2018-09-25T04:20:06.612Z,98098.53
2018-09-25T04:22:40.293Z,98095.89
2018-09-25T04:25:14.090Z,98093.13
2018-09-25T04:27:51.466Z,98096.23
2018-09-25T04:30:25.046Z,98098.62
2018-09-25T04:33:04.904Z,98101.77
2018-09-25T04:35:38.434Z,98096.27
2018-09-25T04:38:13.917Z,98099.41
2018-09-25T04:40:47.403Z,98101.67
2018-09-25T04:43:24.226Z,98099.41
2018-09-25T04:45:57.869Z,98110.10
2018-09-25T04:48:31.451Z,98112.00
2018-09-25T04:51:05.190Z,98111.55
2018-09-25T04:53:39.000Z,98115.02
2018-09-25T04:56:12.726Z,98115.64
2018-09-25T04:58:46.469Z,98120.81
2018-09-25T05:01:20.118Z,98116.23
2018-09-25T05:03:53.848Z,98119.22
2018-09-25T05:06:29.127Z,98126.39
2018-09-25T05:09:02.704Z,98122.16
2018-09-25T05:11:36.386Z,98129.73
2018-09-25T05:14:10.135Z,98132.38
2018-09-25T05:16:43.585Z,98129.88
2018-09-25T05:19:17.098Z,98134.09
2018-09-25T05:21:50.665Z,98136.86
2018-09-25T05:24:26.849Z,98139.50
2018-09-25T05:27:00.418Z,98141.05
2018-09-25T05:29:34.081Z,98143.42
2018-09-25T05:32:07.741Z,98147.87
2018-09-25T05:34:41.409Z,98147.51
2018-09-25T05:37:15.161Z,98144.41
2018-09-25T05:39:48.850Z,98147.27
2018-09-25T05:42:22.285Z,98153.55
2018-09-25T05:44:55.978Z,98150.17
2018-09-25T05:47:29.645Z,98159.66
2018-09-25T05:50:03.295Z,98163.09
2018-09-25T05:52:37.062Z,98164.39
2018-09-25T05:55:11.685Z,98164.87
2018-09-25T05:57:45.406Z,98163.20
2018-09-25T06:00:21.224Z,98172.06
2018-09-25T06:02:54.758Z,98175.95
2018-09-25T06:05:28.643Z,98179.06
2018-09-25T06:08:03.246Z,98173.11
2018-09-25T06:10:38.282Z,98179.25
2018-09-25T06:13:11.910Z,98175.77
2018-09-25T06:15:46.382Z,98182.59
2018-09-25T06:18:20.046Z,98183.56
2018-09-25T06:20:54.588Z,98185.84
2018-09-25T06:23:28.234Z,98188.42
2018-09-25T06:26:02.272Z,98187.84
2018-09-25T06:28:36.002Z,98188.70
2018-09-25T06:31:09.712Z,98193.52
2018-09-25T06:33:43.434Z,98198.92
2018-09-25T06:36:17.125Z,98206.98
2018-09-25T06:38:50.799Z,98216.52
2018-09-25T06:41:24.493Z,98215.44
2018-09-25T06:43:58.162Z,98220.25
2018-09-25T06:46:31.602Z,98220.36
2018-09-25T06:49:05.298Z,98228.17
2018-09-25T06:51:38.950Z,98225.64
2018-09-25T06:54:12.659Z,98227.95
2018-09-25T06:56:46.531Z,98230.48
2018-09-25T06:59:20.090Z,98228.78
2018-09-25T07:01:53.841Z,98231.20
2018-09-25T07:04:27.466Z,98233.59
2018-09-25T07:07:01.160Z,98235.17
2018-09-25T07:09:35.121Z,98236.34
2018-09-25T07:12:08.872Z,98236.75
2018-09-25T07:14:42.394Z,98247.68
2018-09-25T07:17:16.180Z,98245.30
2018-09-25T07:19:49.846Z,98247.70
2018-09-25T07:22:23.474Z,98243.74
2018-09-25T07:24:57.219Z,98252.66
2018-09-25T07:27:30.918Z,98253.27
2018-09-25T07:30:04.666Z,98251.23
2018-09-25T07:32:38.372Z,98261.20
2018-09-25T07:35:12.082Z,98259.66
2018-09-25T07:37:45.958Z,98256.86
2018-09-25T07:40:19.639Z,98268.78
2018-09-25T07:42:53.398Z,98265.64
2018-09-25T07:45:27.082Z,98255.52
2018-09-25T07:48:00.535Z,98258.50
2018-09-25T07:50:34.374Z,98272.45
2018-09-25T07:53:07.874Z,98271.75
2018-09-25T07:55:41.516Z,98270.08
2018-09-25T07:58:15.186Z,98271.83
2018-09-25T08:00:48.888Z,98270.48
2018-09-25T08:03:22.626Z,98276.38
2018-09-25T08:05:56.231Z,98286.27
2018-09-25T08:08:30.037Z,98282.65
2018-09-25T08:11:03.695Z,98282.78
2018-09-25T08:13:37.585Z,98285.98
2018-09-25T08:16:11.959Z,98292.57
2018-09-25T08:18:45.625Z,98303.75
2018-09-25T08:21:19.423Z,98299.58
2018-09-25T08:23:53.295Z,98301.83
2018-09-25T08:26:26.879Z,98305.60
2018-09-25T08:29:00.607Z,98297.48
2018-09-25T08:31:34.295Z,98301.77
2018-09-25T08:34:08.134Z,98297.02
2018-09-25T08:36:41.639Z,98289.52
2018-09-25T08:39:15.251Z,98304.78
2018-09-25T08:41:49.116Z,98311.73
2018-09-25T08:44:22.788Z,98309.36
2018-09-25T08:46:56.223Z,98309.08
2018-09-25T08:49:29.893Z,98308.36
2018-09-25T08:52:03.301Z,98307.48
2018-09-25T08:54:37.083Z,98309.30
2018-09-25T08:57:10.878Z,98306.59
2018-09-25T08:59:44.550Z,98309.40
2018-09-25T09:02:18.353Z,98313.05
2018-09-25T09:04:51.927Z,98309.77
2018-09-25T09:07:25.445Z,98309.27
2018-09-25T09:09:59.055Z,98308.44
2018-09-25T09:12:32.891Z,98309.51
2018-09-25T09:15:06.888Z,98307.75
2018-09-25T09:17:40.629Z,98306.50
2018-09-25T09:20:14.479Z,98313.64
2018-09-25T09:22:48.095Z,98321.62
2018-09-25T09:25:21.723Z,98317.00
2018-09-25T09:27:55.479Z,98317.97
2018-09-25T09:30:28.947Z,98329.30
2018-09-25T09:33:02.641Z,98329.30
2018-09-25T09:35:36.394Z,98322.92
2018-09-25T09:38:09.807Z,98334.13
2018-09-25T09:40:43.551Z,98330.27
2018-09-25T09:43:18.009Z,98327.75
2018-09-25T09:45:51.765Z,98332.80
2018-09-25T09:48:25.468Z,98331.80
2018-09-25T09:50:59.135Z,98338.45
2018-09-25T09:53:32.817Z,98329.15
2018-09-25T09:56:06.791Z,98325.36
2018-09-25T09:58:42.227Z,98322.52
2018-09-25T10:01:15.941Z,98318.27
2018-09-25T10:03:49.975Z,98314.14
2018-09-25T10:06:23.587Z,98312.50
2018-09-25T10:08:57.273Z,98313.52
2018-09-25T10:11:31.337Z,98309.09
2018-09-25T10:14:04.981Z,98304.03
2018-09-25T10:16:38.877Z,98305.16
2018-09-25T10:19:12.418Z,98306.30
2018-09-25T10:21:46.182Z,98304.67
2018-09-25T10:24:19.861Z,98305.94
2018-09-25T10:26:53.745Z,98304.27
2018-09-25T10:29:27.433Z,98305.03
2018-09-25T10:32:01.160Z,98303.07
2018-09-25T10:34:34.826Z,98300.37
2018-09-25T10:37:08.722Z,98299.71
2018-09-25T10:39:42.493Z,98294.41
2018-09-25T10:42:16.246Z,98292.11
2018-09-25T10:44:49.744Z,98290.53
2018-09-25T10:47:23.472Z,98295.50
2018-09-25T10:49:57.365Z,98292.97
2018-09-25T10:52:31.035Z,98293.83
2018-09-25T10:55:04.669Z,98288.72
2018-09-25T10:57:38.103Z,98282.66
2018-09-25T11:00:11.704Z,98283.31
2018-09-25T11:02:45.449Z,98283.30
2018-09-25T11:05:18.857Z,98279.25
2018-09-25T11:07:52.643Z,98272.13
2018-09-25T11:10:26.327Z,98268.77
2018-09-25T11:12:59.949Z,98267.20
2018-09-25T11:15:33.715Z,98266.70
2018-09-25T11:18:07.538Z,98263.14
2018-09-25T11:20:41.160Z,98260.25
2018-09-25T11:23:14.966Z,98265.72
2018-09-25T11:25:48.708Z,98262.58
2018-09-25T11:28:22.326Z,98256.08
2018-09-25T11:30:56.150Z,98255.87
2018-09-25T11:33:29.921Z,98253.52
2018-09-25T11:36:03.478Z,98252.59
2018-09-25T11:38:37.362Z,98254.66
2018-09-25T11:41:10.853Z,98250.54
2018-09-25T11:43:44.490Z,98250.58
2018-09-25T11:46:18.202Z,98244.39
2018-09-25T11:48:51.898Z,98243.91
2018-09-25T11:51:25.734Z,98240.13
2018-09-25T11:53:59.191Z,98236.02
2018-09-25T11:56:32.779Z,98234.87
2018-09-25T11:59:06.402Z,98228.55
2018-09-25T12:01:40.102Z,98223.09
2018-09-25T12:04:13.803Z,98219.95
2018-09-25T12:06:47.342Z,98217.59
2018-09-25T12:09:21.008Z,98218.42
2018-09-25T12:11:54.681Z,98212.25
2018-09-25T12:14:28.595Z,98212.41
2018-09-25T12:17:02.317Z,98213.29
2018-09-25T12:19:36.226Z,98208.78
2018-09-25T12:22:09.821Z,98203.95
2018-09-25T12:24:43.510Z,98210.16
2018-09-25T12:27:17.217Z,98204.97
2018-09-25T12:29:50.947Z,98205.83
2018-09-25T12:32:24.671Z,98196.11
2018-09-25T12:34:58.301Z,98198.78
2018-09-25T12:37:32.120Z,98200.64
2018-09-25T12:40:05.823Z,98199.30
2018-09-25T12:42:39.543Z,98196.78
2018-09-25T12:45:13.065Z,98201.47
2018-09-25T12:47:46.681Z,98191.08
2018-09-25T12:50:20.334Z,98191.23
2018-09-25T12:52:53.823Z,98193.59
2018-09-25T12:55:27.691Z,98188.44
2018-09-25T12:58:01.205Z,98188.58
2018-09-25T13:00:34.834Z,98177.54
2018-09-25T13:03:08.452Z,98189.23
2018-09-25T13:05:42.195Z,98186.41
2018-09-25T13:08:15.950Z,98181.02
2018-09-25T13:10:49.854Z,98177.02
2018-09-25T13:13:23.546Z,98179.70
2018-09-25T13:15:58.042Z,98183.02
2018-09-25T13:18:31.413Z,98178.84
2018-09-25T13:21:05.081Z,98170.77
2018-09-25T13:23:38.811Z,98180.59
2018-09-25T13:26:12.484Z,98168.88
2018-09-25T13:28:46.098Z,98171.93
2018-09-25T13:31:19.586Z,98170.65
2018-09-25T13:33:53.146Z,98163.63
2018-09-25T13:36:27.001Z,98166.78
2018-09-25T13:39:00.578Z,98163.78
2018-09-25T13:41:35.006Z,98153.06
2018-09-25T13:44:08.808Z,98153.54
2018-09-25T13:46:42.574Z,98146.00
2018-09-25T13:49:16.134Z,98147.48
2018-09-25T13:51:49.797Z,98150.16
2018-09-25T13:54:23.542Z,98154.02
2018-09-25T13:56:57.246Z,98144.74
2018-09-25T13:59:30.818Z,98143.19
2018-09-25T14:02:04.563Z,98136.98
2018-09-25T14:04:38.242Z,98132.33
2018-09-25T14:07:11.967Z,98135.69
2018-09-25T14:09:45.702Z,98147.42
2018-09-25T14:12:19.383Z,98143.26
2018-09-25T14:14:53.158Z,98145.47
2018-09-25T14:17:27.016Z,98143.48
2018-09-25T14:20:00.783Z,98156.86
2018-09-25T14:22:34.879Z,98152.67
2018-09-25T14:25:08.536Z,98154.16
2018-09-25T14:27:42.267Z,98152.49
2018-09-25T14:30:16.011Z,98159.36
2018-09-25T14:32:49.741Z,98149.67
2018-09-25T14:35:23.505Z,98155.03
2018-09-25T14:37:57.115Z,98151.84
2018-09-25T14:40:30.813Z,98151.01
2018-09-25T14:43:04.501Z,98147.19
2018-09-25T14:45:38.088Z,98144.20
2018-09-25T14:48:11.777Z,98146.70
2018-09-25T14:50:45.517Z,98149.22
2018-09-25T14:53:19.146Z,98152.25
2018-09-25T14:55:52.765Z,98148.92
2018-09-25T14:58:26.341Z,98140.56
2018-09-25T15:01:00.026Z,98143.55
2018-09-25T15:03:33.742Z,98150.91
2018-09-25T15:06:07.413Z,98152.77
2018-09-25T15:08:41.132Z,98157.13
2018-09-25T15:11:14.858Z,98158.30
2018-09-25T15:13:48.624Z,98158.78
2018-09-25T15:16:22.287Z,98162.14
2018-09-25T15:18:56.042Z,98164.17
2018-09-25T15:21:29.625Z,98163.67
2018-09-25T15:24:03.329Z,98160.84
2018-09-25T15:26:37.191Z,98155.97
2018-09-25T15:29:10.748Z,98159.16
2018-09-25T15:31:44.417Z,98163.69
2018-09-25T15:34:18.185Z,98155.98
2018-09-25T15:36:58.714Z,98147.45
2018-09-25T15:39:32.445Z,98147.10
2018-09-25T15:42:06.195Z,98150.45
2018-09-25T15:44:39.955Z,98150.60
2018-09-25T15:47:13.527Z,98145.25
2018-09-25T15:49:47.419Z,98151.93
2018-09-25T15:52:21.119Z,98147.53
2018-09-25T15:54:54.821Z,98151.69
2018-09-25T15:57:28.581Z,98150.14
2018-09-25T16:00:02.307Z,98151.15
2018-09-25T16:02:36.069Z,98154.94
2018-09-25T16:05:09.797Z,98162.11
2018-09-25T16:07:43.556Z,98163.06
2018-09-25T16:10:17.274Z,98166.36
2018-09-25T16:12:50.903Z,98172.48
2018-09-25T16:15:24.649Z,98167.58
2018-09-25T16:17:58.380Z,98171.37
2018-09-25T16:20:32.101Z,98170.70
2018-09-25T16:23:05.786Z,98172.67
2018-09-25T16:25:39.495Z,98159.28
2018-09-25T16:28:13.065Z,98149.00
2018-09-25T16:30:46.788Z,98151.11
2018-09-25T16:33:20.407Z,98156.89
2018-09-25T16:35:54.069Z,98162.16
2018-09-25T16:38:27.804Z,98161.91
2018-09-25T16:41:01.470Z,98169.34
2018-09-25T16:43:35.118Z,98174.89
2018-09-25T16:46:08.854Z,98170.63
2018-09-25T16:48:42.470Z,98175.34
2018-09-25T16:51:16.189Z,98179.73
2018-09-25T16:53:49.908Z,98185.58
2018-09-25T16:56:23.477Z,98188.16
2018-09-25T16:58:57.217Z,98192.88
2018-09-25T17:01:30.956Z,98195.59
2018-09-25T17:04:04.642Z,98195.53
2018-09-25T17:06:38.307Z,98193.44
2018-09-25T17:09:12.570Z,98187.87
2018-09-25T17:11:46.294Z,98186.34
2018-09-25T17:14:19.991Z,98180.75
2018-09-25T17:16:53.643Z,98188.17
2018-09-25T17:19:27.179Z,98195.47
2018-09-25T17:22:00.902Z,98190.92
2018-09-25T17:24:34.590Z,98195.16
2018-09-25T17:27:08.347Z,98193.91
2018-09-25T17:29:42.085Z,98200.98
2018-09-25T17:32:15.937Z,98203.38
2018-09-25T17:41:41.990Z,98218.73
2018-09-25T17:44:15.591Z,98225.98
2018-09-25T17:46:49.167Z,98225.28
2018-09-25T17:49:22.866Z,98227.94
2018-09-25T17:51:56.666Z,98229.07
2018-09-25T17:54:30.174Z,98228.34
2018-09-25T17:57:03.663Z,98229.83
2018-09-25T17:59:37.241Z,98238.50
2018-09-25T18:02:10.985Z,98238.89
2018-09-25T18:04:45.687Z,98237.78
2018-09-25T18:07:19.419Z,98243.73
2018-09-25T18:09:53.065Z,98244.82
2018-09-25T18:12:26.685Z,98247.14
2018-09-25T18:15:00.395Z,98248.86
2018-09-25T18:17:33.918Z,98240.82
2018-09-25T18:20:07.662Z,98242.14
2018-09-25T18:22:42.258Z,98237.84
2018-09-25T18:25:15.909Z,98239.25
2018-09-25T18:27:49.678Z,98242.70
2018-09-25T18:30:23.344Z,98248.91
2018-09-25T18:32:57.033Z,98250.53
2018-09-25T18:35:30.850Z,98250.02
2018-09-25T18:38:04.511Z,98248.86
2018-09-25T18:40:38.155Z,98252.05
2018-09-25T18:43:11.789Z,98251.62
2018-09-25T18:45:45.460Z,98245.78
2018-09-25T18:48:19.479Z,98242.25
2018-09-25T18:50:53.162Z,98250.57
2018-09-25T18:53:26.761Z,98257.44
2018-09-25T18:56:00.382Z,98252.95
2018-09-25T18:58:34.558Z,98255.59
2018-09-25T19:01:08.085Z,98253.14
2018-09-25T19:03:41.602Z,98250.50
2018-09-25T19:06:15.365Z,98249.89
2018-09-25T19:08:49.098Z,98255.91
2018-09-25T19:11:22.698Z,98257.47
2018-09-25T19:13:56.429Z,98264.15
2018-09-25T19:16:30.132Z,98273.44
2018-09-25T19:19:03.671Z,98281.84
2018-09-25T19:21:37.427Z,98288.61
2018-09-25T19:24:11.578Z,98282.82
2018-09-25T19:26:45.322Z,98276.55
2018-09-25T19:29:19.075Z,98283.78
2018-09-25T19:31:52.830Z,98291.51
2018-09-25T19:34:26.359Z,98303.19
2018-09-25T19:37:00.814Z,98299.59
2018-09-25T19:39:34.462Z,98298.01
2018-09-25T19:42:08.162Z,98295.73
2018-09-25T19:44:41.963Z,98300.08
2018-09-25T19:47:15.623Z,98303.44
2018-09-25T19:49:49.446Z,98308.19
2018-09-25T19:52:22.918Z,98308.34
2018-09-25T19:54:56.613Z,98313.77
2018-09-25T19:57:30.358Z,98301.73
2018-09-25T20:00:04.141Z,98304.16
2018-09-25T20:02:37.783Z,98299.95
2018-09-25T20:05:11.311Z,98303.92
2018-09-25T20:07:45.079Z,98303.20
2018-09-25T20:10:18.907Z,98309.28
2018-09-25T20:12:52.566Z,98317.61
2018-09-25T20:15:26.234Z,98325.08
2018-09-25T20:17:59.902Z,98319.88
2018-09-25T20:20:33.539Z,98324.72
2018-09-25T20:23:07.184Z,98328.38
2018-09-25T20:25:40.646Z,98329.45
2018-09-25T20:28:14.323Z,98338.86
2018-09-25T20:30:48.006Z,98342.58
2018-09-25T20:33:22.426Z,98339.35
2018-09-25T20:35:56.137Z,98341.34
2018-09-25T20:38:29.726Z,98331.64
2018-09-25T20:41:03.402Z,98328.92
2018-09-25T20:43:37.116Z,98326.64
2018-09-25T20:46:11.058Z,98322.46
2018-09-25T20:48:44.755Z,98321.14
2018-09-25T20:51:18.221Z,98321.28
2018-09-25T20:53:51.754Z,98310.84
2018-09-25T20:56:25.502Z,98313.00
2018-09-25T20:58:58.902Z,98310.73
2018-09-25T21:01:32.767Z,98308.66
2018-09-25T21:04:06.376Z,98302.16
2018-09-25T21:06:40.062Z,98308.52
2018-09-25T21:09:14.241Z,98311.41
2018-09-25T21:11:48.617Z,98310.51
2018-09-25T21:14:22.330Z,98315.41
2018-09-25T21:16:56.022Z,98309.94
2018-09-25T21:19:29.674Z,98307.55
2018-09-25T21:22:03.369Z,98309.80
2018-09-25T21:24:37.006Z,98314.06
2018-09-25T21:27:10.855Z,98307.19
2018-09-25T21:29:44.622Z,98307.11
2018-09-25T21:32:18.393Z,98299.72
2018-09-25T21:34:51.978Z,98315.20
2018-09-25T21:37:25.546Z,98314.38
2018-09-25T21:39:59.002Z,98318.27
2018-09-25T21:42:32.574Z,98321.23
2018-09-25T21:45:06.123Z,98318.27
2018-09-25T21:47:39.611Z,98317.86
2018-09-25T21:50:13.121Z,98313.27
2018-09-25T21:52:47.241Z,98316.27
2018-09-25T21:55:20.810Z,98305.77
2018-09-25T21:57:54.424Z,98311.09
2018-09-25T22:00:28.078Z,98309.48
2018-09-25T22:03:01.870Z,98307.77
2018-09-25T22:05:35.463Z,98312.31
2018-09-25T22:08:08.998Z,98311.61
2018-09-25T22:10:42.474Z,98311.45
2018-09-25T22:13:16.138Z,98306.02
2018-09-25T22:15:49.558Z,98306.27
2018-09-25T22:18:23.057Z,98307.20
2018-09-25T22:20:56.562Z,98302.53
2018-09-25T22:23:30.158Z,98297.74
2018-09-25T22:26:03.855Z,98300.39
2018-09-25T22:28:37.247Z,98298.56
2018-09-25T22:31:10.920Z,98301.74
2018-09-25T22:33:44.434Z,98299.11
2018-09-25T22:36:18.119Z,98295.38
2018-09-25T22:38:51.612Z,98295.86
2018-09-25T22:41:25.166Z,98287.95
2018-09-25T22:43:58.858Z,98288.34
2018-09-25T22:46:32.550Z,98282.78
2018-09-25T22:49:06.116Z,98279.28
2018-09-25T22:51:39.838Z,98276.48
2018-09-25T22:54:13.554Z,98276.55
2018-09-25T22:56:47.154Z,98275.77
2018-09-25T22:59:20.878Z,98267.38
2018-09-25T23:01:54.491Z,98258.73
2018-09-25T23:04:28.166Z,98260.78
2018-09-25T23:07:01.558Z,98256.13
2018-09-25T23:09:35.420Z,98244.54
2018-09-25T23:12:08.942Z,98237.51
2018-09-25T23:14:42.633Z,98240.56
2018-09-25T23:17:16.198Z,98233.81
2018-09-25T23:19:49.902Z,98232.34
2018-09-25T23:22:23.342Z,98234.80
2018-09-25T23:24:57.122Z,98233.48
2018-09-25T23:27:30.849Z,98236.22
2018-09-25T23:30:04.479Z,98229.34
2018-09-25T23:32:37.962Z,98225.52
2018-09-25T23:35:11.634Z,98222.02
2018-09-25T23:37:45.273Z,98219.00
2018-09-25T23:40:21.925Z,98208.83
2018-09-25T23:42:58.582Z,98212.36
2018-09-25T23:45:32.271Z,98209.79
2018-09-25T23:48:04.934Z,98208.70
2018-09-25T23:50:38.635Z,98209.37
2018-09-25T23:53:11.346Z,98204.14
2018-09-25T23:55:43.237Z,98204.16
2018-09-25T23:58:16.099Z,98197.58
